CYBL

Campbell River Airport

Campbell River, , Canada
TAF CYBL 190038Z 1901/1905 12020G30KT P6SM -RA SCT008 OVC015 TEMPO 1901/1905 3SM -RA BR OVC008 RMK NXT FCST WILL BE ISSUED AT 191545Z
Issued Valid From Valid To
Jan-19 @ 00:38 UTC
(2 hours ago)
Jan-19 @ 01:00 UTC
(an hour ago)
Jan-19 @ 05:00 UTC
(in 3 hours)
Jan-19 @ 01:00 to Jan-19 @ 05:00
TAF CYBL 190038Z 1901/1905 12020G30KT P6SM -RA SCT008 OVC015
Wind Visibility Clouds Conditions
120° at 20 knots
 Gusting to 30 knots
Greater than 6 miles
  • Scattered at 800' AGL
  • Overcast at 1,500' AGL
  • Light Rain
Temporary Jan-19 @ 01:00 to Jan-19 @ 05:00
TEMPO 1901/1905 3SM -RA BR OVC008 RMK NXT FCST WILL BE ISSUED AT 191545Z
Visibility Clouds Conditions
3 miles
  • Overcast at 800' AGL
  • Light Rain
  • Mist
TAF CYBL 190038Z 1901/1905 12020G30KT P6SM -RA SCT008 OVC015 TEMPO 1901/1905 3SM -RA BR OVC008 RMK NXT FCST WILL BE ISSUED AT 191545Z
Issued Jan-19 @ 00:38 UTC
(2 hours ago)
Valid From Jan-19 @ 01:00 UTC
(an hour ago)
Valid To Jan-19 @ 05:00 UTC
(in 3 hours)
Jan-19 @ 01:00 - Jan-19 @ 05:00
Wind Visibility
120° at 20 knots
 Gusting to 30 knots
Greater than 6 miles
Clouds
  • Scattered at 800' AGL
  • Overcast at 1,500' AGL
Conditions
  • Light Rain
Temporary Jan-19 @ 01:00 - Jan-19 @ 05:00
Clouds
  • Overcast at 800' AGL
Conditions
  • Light Rain
  • Mist